sensor_id;sensor_type;location;lat;lon;timestamp;pressure;altitude;pressure_sealevel;temperature;humidity
44103;BME280;29769;42.178;24.742;2023-05-22T00:00:58;99264.63;;;15.03;100.00
44103;BME280;29769;42.178;24.742;2023-05-22T00:03:45;99263.13;;;14.96;100.00
44103;BME280;29769;42.178;24.742;2023-05-22T00:06:30;99264.84;;;14.97;100.00
44103;BME280;29769;42.178;24.742;2023-05-22T00:09:17;99262.25;;;14.95;100.00
44103;BME280;29769;42.178;24.742;2023-05-22T00:12:01;99258.00;;;14.91;100.00
44103;BME280;29769;42.178;24.742;2023-05-22T00:14:46;99260.84;;;14.87;100.00
44103;BME280;29769;42.178;24.742;2023-05-22T00:17:30;99259.97;;;14.86;100.00
44103;BME280;29769;42.178;24.742;2023-05-22T00:20:15;99264.50;;;14.84;100.00
44103;BME280;29769;42.178;24.742;2023-05-22T00:22:59;99265.34;;;14.85;100.00
44103;BME280;29769;42.178;24.742;2023-05-22T00:25:44;99257.31;;;14.86;100.00
44103;BME280;29769;42.178;24.742;2023-05-22T00:28:29;99265.34;;;14.85;100.00
44103;BME280;29769;42.178;24.742;2023-05-22T00:31:13;99267.00;;;14.87;100.00
44103;BME280;29769;42.178;24.742;2023-05-22T00:33:58;99268.88;;;14.85;100.00
44103;BME280;29769;42.178;24.742;2023-05-22T00:36:43;99274.16;;;14.85;100.00
44103;BME280;29769;42.178;24.742;2023-05-22T00:39:27;99278.50;;;14.86;100.00
44103;BME280;29769;42.178;24.742;2023-05-22T00:42:12;99278.59;;;14.85;100.00
44103;BME280;29769;42.178;24.742;2023-05-22T00:44:57;99278.66;;;14.83;100.00
44103;BME280;29769;42.178;24.742;2023-05-22T00:47:42;99282.94;;;14.86;100.00
44103;BME280;29769;42.178;24.742;2023-05-22T00:50:27;99284.75;;;14.85;100.00
44103;BME280;29769;42.178;24.742;2023-05-22T00:53:12;99280.38;;;14.84;100.00
44103;BME280;29769;42.178;24.742;2023-05-22T00:55:57;99283.03;;;14.84;100.00
44103;BME280;29769;42.178;24.742;2023-05-22T00:58:42;99277.66;;;14.86;100.00
44103;BME280;29769;42.178;24.742;2023-05-22T01:01:27;99277.81;;;14.81;100.00
44103;BME280;29769;42.178;24.742;2023-05-22T01:04:16;99268.09;;;14.82;100.00
44103;BME280;29769;42.178;24.742;2023-05-22T01:07:01;99273.41;;;14.82;100.00
44103;BME280;29769;42.178;24.742;2023-05-22T01:09:46;99277.66;;;14.86;100.00
44103;BME280;29769;42.178;24.742;2023-05-22T01:15:25;99281.75;;;14.94;100.00
44103;BME280;29769;42.178;24.742;2023-05-22T01:21:07;99274.16;;;14.85;100.00
44103;BME280;29769;42.178;24.742;2023-05-22T01:32:15;99266.22;;;14.85;100.00
44103;BME280;29769;42.178;24.742;2023-05-22T01:35:04;99270.53;;;14.88;100.00
44103;BME280;29769;42.178;24.742;2023-05-22T01:37:51;99272.13;;;14.92;100.00
44103;BME280;29769;42.178;24.742;2023-05-22T01:40:37;99258.94;;;14.90;100.00
44103;BME280;29769;42.178;24.742;2023-05-22T01:43:22;99261.47;;;14.93;100.00
44103;BME280;29769;42.178;24.742;2023-05-22T01:46:07;99256.22;;;14.92;100.00
44103;BME280;29769;42.178;24.742;2023-05-22T01:48:51;99257.28;;;14.88;100.00
44103;BME280;29769;42.178;24.742;2023-05-22T01:51:52;99258.28;;;14.85;100.00
44103;BME280;29769;42.178;24.742;2023-05-22T01:54:38;99259.88;;;14.89;100.00
44103;BME280;29769;42.178;24.742;2023-05-22T01:57:27;99260.66;;;14.91;100.00
44103;BME280;29769;42.178;24.742;2023-05-22T02:00:14;99256.28;;;14.90;100.00
44103;BME280;29769;42.178;24.742;2023-05-22T02:03:05;99262.38;;;14.92;100.00
44103;BME280;29769;42.178;24.742;2023-05-22T02:05:53;99264.03;;;14.95;100.00
44103;BME280;29769;42.178;24.742;2023-05-22T02:08:38;99261.47;;;14.93;100.00
44103;BME280;29769;42.178;24.742;2023-05-22T02:11:28;99263.31;;;14.91;100.00
44103;BME280;29769;42.178;24.742;2023-05-22T02:14:13;99258.19;;;14.87;100.00
44103;BME280;29769;42.178;24.742;2023-05-22T02:16:59;99268.00;;;14.85;100.00
44103;BME280;29769;42.178;24.742;2023-05-22T02:19:45;99268.09;;;14.82;100.00
44103;BME280;29769;42.178;24.742;2023-05-22T02:22:30;99266.59;;;14.76;100.00
44103;BME280;29769;42.178;24.742;2023-05-22T02:25:14;99265.75;;;14.74;100.00
44103;BME280;29769;42.178;24.742;2023-05-22T02:28:00;99268.28;;;14.77;100.00
44103;BME280;29769;42.178;24.742;2023-05-22T02:30:45;99268.97;;;14.82;100.00
44103;BME280;29769;42.178;24.742;2023-05-22T02:33:30;99267.13;;;14.84;100.00
44103;BME280;29769;42.178;24.742;2023-05-22T02:36:15;99276.88;;;14.84;100.00
44103;BME280;29769;42.178;24.742;2023-05-22T02:39:00;99273.72;;;14.96;100.00
44103;BME280;29769;42.178;24.742;2023-05-22T02:41:45;99270.78;;;15.03;100.00
44103;BME280;29769;42.178;24.742;2023-05-22T02:44:29;99274.81;;;14.90;100.00
44103;BME280;29769;42.178;24.742;2023-05-22T02:47:14;99266.31;;;14.82;100.00
44103;BME280;29769;42.178;24.742;2023-05-22T02:49:58;99265.41;;;14.83;100.00
44103;BME280;29769;42.178;24.742;2023-05-22T02:52:43;99268.88;;;14.85;100.00
44103;BME280;29769;42.178;24.742;2023-05-22T02:55:29;99268.38;;;14.97;100.00
44103;BME280;29769;42.178;24.742;2023-05-22T02:58:13;99271.03;;;14.97;100.00
44103;BME280;29769;42.178;24.742;2023-05-22T03:00:58;99265.19;;;14.89;100.00
44103;BME280;29769;42.178;24.742;2023-05-22T03:03:44;99266.88;;;14.90;100.00
44103;BME280;29769;42.178;24.742;2023-05-22T03:06:29;99268.25;;;15.00;100.00
44103;BME280;29769;42.178;24.742;2023-05-22T03:09:14;99263.63;;;15.05;100.00
44103;BME280;29769;42.178;24.742;2023-05-22T03:11:59;99272.16;;;14.90;100.00
44103;BME280;29769;42.178;24.742;2023-05-22T03:14:44;99265.41;;;14.83;100.00
44103;BME280;29769;42.178;24.742;2023-05-22T03:17:29;99270.75;;;14.82;100.00
44103;BME280;29769;42.178;24.742;2023-05-22T03:20:14;99272.53;;;14.81;100.00
44103;BME280;29769;42.178;24.742;2023-05-22T03:23:00;99266.41;;;14.81;100.00
44103;BME280;29769;42.178;24.742;2023-05-22T03:25:45;99272.53;;;14.81;100.00
44103;BME280;29769;42.178;24.742;2023-05-22T03:28:30;99264.72;;;14.78;100.00
44103;BME280;29769;42.178;24.742;2023-05-22T03:31:14;99271.63;;;14.82;100.00
44103;BME280;29769;42.178;24.742;2023-05-22T03:34:14;99270.34;;;14.92;100.00
44103;BME280;29769;42.178;24.742;2023-05-22T03:37:02;99269.16;;;14.99;100.00
44103;BME280;29769;42.178;24.742;2023-05-22T03:39:47;99262.84;;;15.03;100.00
44103;BME280;29769;42.178;24.742;2023-05-22T03:42:40;99266.59;;;14.98;100.00
44103;BME280;29769;42.178;24.742;2023-05-22T03:45:25;99270.09;;;14.98;100.00
44103;BME280;29769;42.178;24.742;2023-05-22T03:48:09;99273.50;;;15.02;100.00
44103;BME280;29769;42.178;24.742;2023-05-22T03:50:54;99262.75;;;15.05;100.00
44103;BME280;29769;42.178;24.742;2023-05-22T03:53:38;99269.84;;;15.04;100.00
44103;BME280;29769;42.178;24.742;2023-05-22T03:56:23;99273.06;;;15.12;100.00
44103;BME280;29769;42.178;24.742;2023-05-22T03:59:09;99272.19;;;15.12;100.00
44103;BME280;29769;42.178;24.742;2023-05-22T04:01:53;99279.16;;;15.14;100.00
44103;BME280;29769;42.178;24.742;2023-05-22T04:04:38;99271.84;;;15.21;100.00
44103;BME280;29769;42.178;24.742;2023-05-22T04:07:22;99283.94;;;15.27;100.00
44103;BME280;29769;42.178;24.742;2023-05-22T04:10:07;99287.03;;;15.38;100.00
44103;BME280;29769;42.178;24.742;2023-05-22T04:12:52;99287.91;;;15.38;100.00
44103;BME280;29769;42.178;24.742;2023-05-22T04:15:36;99283.13;;;15.46;100.00
44103;BME280;29769;42.178;24.742;2023-05-22T04:18:21;99281.50;;;15.44;100.00
44103;BME280;29769;42.178;24.742;2023-05-22T04:21:05;99291.09;;;15.46;100.00
44103;BME280;29769;42.178;24.742;2023-05-22T04:23:53;99278.03;;;15.42;100.00
44103;BME280;29769;42.178;24.742;2023-05-22T04:26:37;99274.31;;;15.46;100.00
44103;BME280;29769;42.178;24.742;2023-05-22T04:29:22;99273.41;;;15.47;100.00
44103;BME280;29769;42.178;24.742;2023-05-22T04:32:08;99280.00;;;15.58;100.00
44103;BME280;29769;42.178;24.742;2023-05-22T04:34:53;99277.44;;;15.57;100.00
44103;BME280;29769;42.178;24.742;2023-05-22T04:37:41;99278.34;;;15.56;100.00
44103;BME280;29769;42.178;24.742;2023-05-22T04:40:28;99288.94;;;15.56;100.00
44103;BME280;29769;42.178;24.742;2023-05-22T04:43:16;99293.00;;;15.65;100.00
44103;BME280;29769;42.178;24.742;2023-05-22T04:46:02;99293.06;;;15.63;100.00
44103;BME280;29769;42.178;24.742;2023-05-22T04:48:46;99291.34;;;15.62;100.00
44103;BME280;29769;42.178;24.742;2023-05-22T04:51:30;99285.19;;;15.62;100.00
44103;BME280;29769;42.178;24.742;2023-05-22T04:54:16;99286.97;;;15.61;100.00
44103;BME280;29769;42.178;24.742;2023-05-22T04:57:01;99281.41;;;15.67;100.00
44103;BME280;29769;42.178;24.742;2023-05-22T04:59:47;99282.34;;;15.86;100.00
44103;BME280;29769;42.178;24.742;2023-05-22T05:02:33;99289.78;;;15.98;100.00
44103;BME280;29769;42.178;24.742;2023-05-22T05:05:18;99293.47;;;16.15;100.00
44103;BME280;29769;42.178;24.742;2023-05-22T05:08:03;99296.19;;;16.13;100.00
44103;BME280;29769;42.178;24.742;2023-05-22T05:10:48;99297.00;;;16.15;100.00
44103;BME280;29769;42.178;24.742;2023-05-22T05:13:32;99292.63;;;16.14;100.00
44103;BME280;29769;42.178;24.742;2023-05-22T05:16:17;99296.75;;;16.21;100.00
44103;BME280;29769;42.178;24.742;2023-05-22T05:19:02;99298.53;;;16.21;100.00
44103;BME280;29769;42.178;24.742;2023-05-22T05:21:47;99302.88;;;16.22;100.00
44103;BME280;29769;42.178;24.742;2023-05-22T05:24:32;99301.09;;;16.22;100.00
44103;BME280;29769;42.178;24.742;2023-05-22T05:27:17;99296.53;;;16.26;100.00
44103;BME280;29769;42.178;24.742;2023-05-22T05:30:02;99301.53;;;16.32;100.00
44103;BME280;29769;42.178;24.742;2023-05-22T05:33:00;99303.78;;;16.41;100.00
44103;BME280;29769;42.178;24.742;2023-05-22T05:36:23;99306.91;;;16.51;100.00
44103;BME280;29769;42.178;24.742;2023-05-22T05:39:08;99308.28;;;16.59;100.00
44103;BME280;29769;42.178;24.742;2023-05-22T05:41:53;99314.09;;;16.67;100.00
44103;BME280;29769;42.178;24.742;2023-05-22T05:44:38;99315.34;;;16.60;100.00
44103;BME280;29769;42.178;24.742;2023-05-22T05:47:24;99314.09;;;16.67;100.00
44103;BME280;29769;42.178;24.742;2023-05-22T05:50:11;99315.34;;;16.79;100.00
44103;BME280;29769;42.178;24.742;2023-05-22T05:53:00;99323.44;;;16.95;100.00
44103;BME280;29769;42.178;24.742;2023-05-22T05:55:45;99337.25;;;17.21;100.00
44103;BME280;29769;42.178;24.742;2023-05-22T05:58:30;99330.75;;;17.46;100.00
44103;BME280;29769;42.178;24.742;2023-05-22T06:01:44;99327.78;;;17.52;100.00
44103;BME280;29769;42.178;24.742;2023-05-22T06:04:36;99326.94;;;17.51;100.00
44103;BME280;29769;42.178;24.742;2023-05-22T06:07:22;99327.59;;;17.73;100.00
44103;BME280;29769;42.178;24.742;2023-05-22T06:10:10;99333.97;;;18.05;100.00
44103;BME280;29769;42.178;24.742;2023-05-22T06:13:14;99341.78;;;18.43;100.00
44103;BME280;29769;42.178;24.742;2023-05-22T06:15:59;99336.50;;;18.41;100.00
44103;BME280;29769;42.178;24.742;2023-05-22T06:18:44;99342.63;;;18.43;100.00
44103;BME280;29769;42.178;24.742;2023-05-22T06:21:30;99343.31;;;18.64;100.00
44103;BME280;29769;42.178;24.742;2023-05-22T06:24:15;99349.56;;;18.96;100.00
44103;BME280;29769;42.178;24.742;2023-05-22T06:27:00;99346.41;;;19.21;100.00
44103;BME280;29769;42.178;24.742;2023-05-22T06:29:45;99348.59;;;19.45;100.00
44103;BME280;29769;42.178;24.742;2023-05-22T06:32:30;99346.56;;;19.80;100.00
44103;BME280;29769;42.178;24.742;2023-05-22T06:35:14;99343.66;;;19.99;100.00
44103;BME280;29769;42.178;24.742;2023-05-22T06:37:59;99345.50;;;19.98;100.00
44103;BME280;29769;42.178;24.742;2023-05-22T06:40:44;99346.53;;;20.26;100.00
44103;BME280;29769;42.178;24.742;2023-05-22T06:43:35;99352.09;;;20.37;100.00
44103;BME280;29769;42.178;24.742;2023-05-22T06:46:29;99355.69;;;20.80;100.00
44103;BME280;29769;42.178;24.742;2023-05-22T06:49:20;99356.50;;;20.95;100.00
44103;BME280;29769;42.178;24.742;2023-05-22T06:52:09;99354.53;;;20.98;100.00
44103;BME280;29769;42.178;24.742;2023-05-22T06:54:54;99346.50;;;20.84;100.00
44103;BME280;29769;42.178;24.742;2023-05-22T06:57:40;99354.78;;;20.51;100.00
44103;BME280;29769;42.178;24.742;2023-05-22T07:00:25;99356.63;;;20.65;100.00
44103;BME280;29769;42.178;24.742;2023-05-22T07:03:30;99362.56;;;20.84;100.00
44103;BME280;29769;42.178;24.742;2023-05-22T07:06:43;99353.72;;;20.54;100.00
44103;BME280;29769;42.178;24.742;2023-05-22T07:09:30;99359.84;;;20.56;100.00
44103;BME280;29769;42.178;24.742;2023-05-22T07:12:15;99358.03;;;20.42;100.00
44103;BME280;29769;42.178;24.742;2023-05-22T07:15:00;99359.34;;;20.49;100.00
44103;BME280;29769;42.178;24.742;2023-05-22T07:17:46;99362.91;;;20.92;100.00
44103;BME280;29769;42.178;24.742;2023-05-22T07:20:31;99351.16;;;20.95;100.00
44103;BME280;29769;42.178;24.742;2023-05-22T07:23:26;99360.03;;;21.38;100.00
44103;BME280;29769;42.178;24.742;2023-05-22T07:26:11;99355.28;;;21.55;100.00
44103;BME280;29769;42.178;24.742;2023-05-22T07:29:03;99351.13;;;21.91;88.07
44103;BME280;29769;42.178;24.742;2023-05-22T07:31:48;99357.84;;;21.98;84.39
44103;BME280;29769;42.178;24.742;2023-05-22T07:34:33;99354.19;;;22.38;84.73
44103;BME280;29769;42.178;24.742;2023-05-22T07:37:20;99361.59;;;22.73;82.17
44103;BME280;29769;42.178;24.742;2023-05-22T07:40:07;99360.66;;;22.74;72.35
44103;BME280;29769;42.178;24.742;2023-05-22T07:42:53;99347.88;;;23.02;77.13
44103;BME280;29769;42.178;24.742;2023-05-22T07:45:39;99348.00;;;22.88;75.08
44103;BME280;29769;42.178;24.742;2023-05-22T07:48:26;99337.88;;;23.41;74.64
44103;BME280;29769;42.178;24.742;2023-05-22T07:51:12;99344.53;;;23.12;78.57
44103;BME280;29769;42.178;24.742;2023-05-22T07:53:58;99335.97;;;22.94;79.76
44103;BME280;29769;42.178;24.742;2023-05-22T07:56:43;99341.38;;;23.18;77.21
44103;BME280;29769;42.178;24.742;2023-05-22T07:59:29;99342.94;;;22.96;74.04
44103;BME280;29769;42.178;24.742;2023-05-22T08:02:19;99355.53;;;23.32;73.16
44103;BME280;29769;42.178;24.742;2023-05-22T08:05:03;99352.25;;;23.40;69.56
44103;BME280;29769;42.178;24.742;2023-05-22T08:07:48;99347.66;;;24.13;65.26
44103;BME280;29769;42.178;24.742;2023-05-22T08:10:33;99349.06;;;24.76;62.10
44103;BME280;29769;42.178;24.742;2023-05-22T08:13:18;99353.22;;;25.36;59.34
44103;BME280;29769;42.178;24.742;2023-05-22T08:16:02;99340.09;;;25.53;56.31
44103;BME280;29769;42.178;24.742;2023-05-22T08:18:47;99347.00;;;24.79;58.52
44103;BME280;29769;42.178;24.742;2023-05-22T08:21:32;99337.78;;;25.49;56.30
44103;BME280;29769;42.178;24.742;2023-05-22T08:24:17;99336.75;;;26.36;54.15
44103;BME280;29769;42.178;24.742;2023-05-22T08:27:03;99341.28;;;26.97;51.91
44103;BME280;29769;42.178;24.742;2023-05-22T08:29:47;99329.34;;;26.17;52.72
44103;BME280;29769;42.178;24.742;2023-05-22T08:32:32;99336.66;;;25.74;55.84
44103;BME280;29769;42.178;24.742;2023-05-22T08:35:17;99344.06;;;25.92;54.72
44103;BME280;29769;42.178;24.742;2023-05-22T08:38:02;99343.41;;;26.00;54.28
44103;BME280;29769;42.178;24.742;2023-05-22T08:40:46;99342.25;;;26.76;48.92
44103;BME280;29769;42.178;24.742;2023-05-22T08:43:34;99334.47;;;27.03;45.35
44103;BME280;29769;42.178;24.742;2023-05-22T08:46:19;99326.38;;;27.43;45.21
44103;BME280;29769;42.178;24.742;2023-05-22T08:49:09;99328.59;;;28.07;44.17
44103;BME280;29769;42.178;24.742;2023-05-22T08:51:59;99338.84;;;28.42;42.55
44103;BME280;29769;42.178;24.742;2023-05-22T08:54:51;99333.31;;;28.14;42.68
44103;BME280;29769;42.178;24.742;2023-05-22T08:57:36;99330.44;;;28.06;41.48
44103;BME280;29769;42.178;24.742;2023-05-22T09:00:21;99328.88;;;28.04;42.34
44103;BME280;29769;42.178;24.742;2023-05-22T09:03:06;99321.63;;;28.43;40.94
44103;BME280;29769;42.178;24.742;2023-05-22T09:05:53;99331.59;;;28.23;41.12
44103;BME280;29769;42.178;24.742;2023-05-22T09:08:38;99329.00;;;28.41;40.36
44103;BME280;29769;42.178;24.742;2023-05-22T09:11:23;99325.38;;;28.88;39.14
44103;BME280;29769;42.178;24.742;2023-05-22T09:14:08;99330.34;;;29.30;39.16
44103;BME280;29769;42.178;24.742;2023-05-22T09:16:53;99328.84;;;29.08;39.30
44103;BME280;29769;42.178;24.742;2023-05-22T09:19:41;99321.63;;;29.26;40.62
44103;BME280;29769;42.178;24.742;2023-05-22T09:22:35;99319.00;;;30.07;39.75
44103;BME280;29769;42.178;24.742;2023-05-22T09:25:23;99317.03;;;30.17;38.53
44103;BME280;29769;42.178;24.742;2023-05-22T09:28:09;99323.88;;;29.03;37.99
44103;BME280;29769;42.178;24.742;2023-05-22T09:30:54;99316.81;;;28.93;39.24
44103;BME280;29769;42.178;24.742;2023-05-22T09:33:39;99316.34;;;29.79;37.87
44103;BME280;29769;42.178;24.742;2023-05-22T09:36:30;99315.38;;;29.98;36.95
44103;BME280;29769;42.178;24.742;2023-05-22T09:39:16;99308.78;;;30.44;36.58
44103;BME280;29769;42.178;24.742;2023-05-22T09:42:01;99305.69;;;31.16;36.73
44103;BME280;29769;42.178;24.742;2023-05-22T09:44:48;99309.69;;;30.70;34.26
44103;BME280;29769;42.178;24.742;2023-05-22T09:47:33;99318.28;;;28.78;36.18
44103;BME280;29769;42.178;24.742;2023-05-22T09:50:18;99307.41;;;28.87;36.67
44103;BME280;29769;42.178;24.742;2023-05-22T09:53:03;99307.78;;;29.39;36.54
44103;BME280;29769;42.178;24.742;2023-05-22T09:55:48;99311.22;;;28.48;39.03
44103;BME280;29769;42.178;24.742;2023-05-22T09:58:33;99300.13;;;28.97;37.98
44103;BME280;29769;42.178;24.742;2023-05-22T10:01:19;99307.22;;;28.98;38.02
44103;BME280;29769;42.178;24.742;2023-05-22T10:04:05;99300.94;;;29.35;36.37
44103;BME280;29769;42.178;24.742;2023-05-22T10:06:52;99294.53;;;29.71;36.93
44103;BME280;29769;42.178;24.742;2023-05-22T10:09:37;99290.09;;;30.41;33.57
44103;BME280;29769;42.178;24.742;2023-05-22T10:12:24;99296.97;;;30.71;31.47
44103;BME280;29769;42.178;24.742;2023-05-22T10:15:10;99286.75;;;32.15;31.61
44103;BME280;29769;42.178;24.742;2023-05-22T10:17:55;99283.31;;;30.88;34.43
44103;BME280;29769;42.178;24.742;2023-05-22T10:20:41;99291.03;;;30.06;34.09
44103;BME280;29769;42.178;24.742;2023-05-22T10:23:25;99284.19;;;32.38;31.80
44103;BME280;29769;42.178;24.742;2023-05-22T10:26:11;99276.06;;;34.16;29.82
44103;BME280;29769;42.178;24.742;2023-05-22T10:28:58;99286.03;;;35.13;27.41
44103;BME280;29769;42.178;24.742;2023-05-22T10:31:45;99286.13;;;34.76;27.74
44103;BME280;29769;42.178;24.742;2023-05-22T10:37:47;99272.69;;;34.14;27.64
44103;BME280;29769;42.178;24.742;2023-05-22T10:40:32;99269.19;;;35.75;27.18
44103;BME280;29769;42.178;24.742;2023-05-22T10:43:19;99271.91;;;34.80;26.87
44103;BME280;29769;42.178;24.742;2023-05-22T10:46:05;99268.72;;;33.79;28.08
44103;BME280;29769;42.178;24.742;2023-05-22T10:48:51;99273.38;;;32.93;28.55
44103;BME280;29769;42.178;24.742;2023-05-22T10:51:36;99270.66;;;33.32;28.56
44103;BME280;29769;42.178;24.742;2023-05-22T10:54:35;99256.34;;;33.38;27.83
44103;BME280;29769;42.178;24.742;2023-05-22T10:57:21;99244.47;;;35.33;26.25
44103;BME280;29769;42.178;24.742;2023-05-22T11:00:11;99248.81;;;34.68;27.02
44103;BME280;29769;42.178;24.742;2023-05-22T11:03:01;99239.34;;;37.26;24.40
44103;BME280;29769;42.178;24.742;2023-05-22T11:05:51;99231.75;;;38.35;22.99
44103;BME280;29769;42.178;24.742;2023-05-22T11:08:36;99232.94;;;36.71;23.51
44103;BME280;29769;42.178;24.742;2023-05-22T11:11:25;99232.53;;;37.56;22.94
44103;BME280;29769;42.178;24.742;2023-05-22T11:14:10;99236.34;;;38.80;22.89
44103;BME280;29769;42.178;24.742;2023-05-22T11:16:58;99240.19;;;36.58;23.10
44103;BME280;29769;42.178;24.742;2023-05-22T11:19:43;99240.28;;;34.49;24.70
44103;BME280;29769;42.178;24.742;2023-05-22T11:22:29;99240.31;;;34.11;25.18
44103;BME280;29769;42.178;24.742;2023-05-22T11:25:18;99242.75;;;32.83;26.62
44103;BME280;29769;42.178;24.742;2023-05-22T11:28:03;99242.31;;;32.47;28.06
44103;BME280;29769;42.178;24.742;2023-05-22T11:30:49;99249.47;;;32.64;27.56
44103;BME280;29769;42.178;24.742;2023-05-22T11:33:33;99262.59;;;32.28;33.23
44103;BME280;29769;42.178;24.742;2023-05-22T11:36:18;99261.91;;;32.18;33.97
44103;BME280;29769;42.178;24.742;2023-05-22T11:39:03;99262.56;;;31.71;34.22
44103;BME280;29769;42.178;24.742;2023-05-22T11:41:48;99276.41;;;30.68;36.27
44103;BME280;29769;42.178;24.742;2023-05-22T11:44:33;99296.41;;;28.52;44.11
44103;BME280;29769;42.178;24.742;2023-05-22T11:47:18;99311.75;;;26.54;56.13
44103;BME280;29769;42.178;24.742;2023-05-22T11:50:03;99312.63;;;25.28;65.88
44103;BME280;29769;42.178;24.742;2023-05-22T11:52:51;99327.97;;;24.25;77.99
44103;BME280;29769;42.178;24.742;2023-05-22T11:55:36;99330.69;;;23.41;98.80
44103;BME280;29769;42.178;24.742;2023-05-22T11:58:26;99336.69;;;22.33;93.98
44103;BME280;29769;42.178;24.742;2023-05-22T12:01:10;99334.19;;;22.04;92.61
44103;BME280;29769;42.178;24.742;2023-05-22T12:03:55;99325.72;;;21.98;98.48
44103;BME280;29769;42.178;24.742;2023-05-22T12:06:40;99318.78;;;22.21;100.00
44103;BME280;29769;42.178;24.742;2023-05-22T12:09:26;99298.31;;;22.32;100.00
44103;BME280;29769;42.178;24.742;2023-05-22T12:12:11;99282.88;;;21.71;98.75
44103;BME280;29769;42.178;24.742;2023-05-22T12:14:56;99269.41;;;21.05;100.00
44103;BME280;29769;42.178;24.742;2023-05-22T12:17:41;99289.03;;;20.34;100.00
44103;BME280;29769;42.178;24.742;2023-05-22T12:20:29;99284.66;;;20.48;100.00
44103;BME280;29769;42.178;24.742;2023-05-22T12:23:21;99279.47;;;20.45;100.00
44103;BME280;29769;42.178;24.742;2023-05-22T12:26:08;99285.41;;;20.50;100.00
44103;BME280;29769;42.178;24.742;2023-05-22T12:28:53;99285.97;;;20.83;100.00
44103;BME280;29769;42.178;24.742;2023-05-22T12:31:38;99271.50;;;21.14;100.00
44103;BME280;29769;42.178;24.742;2023-05-22T12:34:23;99278.31;;;20.77;100.00
44103;BME280;29769;42.178;24.742;2023-05-22T12:37:22;99282.00;;;20.62;100.00
44103;BME280;29769;42.178;24.742;2023-05-22T12:40:08;99281.66;;;20.80;100.00
44103;BME280;29769;42.178;24.742;2023-05-22T12:42:53;99272.38;;;21.00;100.00
44103;BME280;29769;42.178;24.742;2023-05-22T12:45:37;99281.31;;;21.27;100.00
44103;BME280;29769;42.178;24.742;2023-05-22T12:48:24;99281.97;;;21.58;100.00
44103;BME280;29769;42.178;24.742;2023-05-22T12:51:09;99280.88;;;21.48;100.00
44103;BME280;29769;42.178;24.742;2023-05-22T12:53:54;99276.81;;;21.28;100.00
44103;BME280;29769;42.178;24.742;2023-05-22T12:56:39;99274.97;;;21.02;100.00
44103;BME280;29769;42.178;24.742;2023-05-22T12:59:23;99268.78;;;21.94;100.00
44103;BME280;29769;42.178;24.742;2023-05-22T13:02:08;99264.25;;;23.09;100.00
44103;BME280;29769;42.178;24.742;2023-05-22T13:04:53;99265.25;;;23.79;82.86
44103;BME280;29769;42.178;24.742;2023-05-22T13:07:37;99262.91;;;24.89;75.26
44103;BME280;29769;42.178;24.742;2023-05-22T13:10:22;99266.31;;;25.56;71.30
44103;BME280;29769;42.178;24.742;2023-05-22T13:13:06;99266.03;;;26.83;64.72
44103;BME280;29769;42.178;24.742;2023-05-22T13:15:51;99276.78;;;28.30;56.15
44103;BME280;29769;42.178;24.742;2023-05-22T13:18:36;99269.78;;;29.66;48.91
44103;BME280;29769;42.178;24.742;2023-05-22T13:21:20;99266.69;;;30.91;50.09
44103;BME280;29769;42.178;24.742;2023-05-22T13:24:05;99266.13;;;31.64;45.00
44103;BME280;29769;42.178;24.742;2023-05-22T13:26:50;99260.56;;;32.22;40.73
44103;BME280;29769;42.178;24.742;2023-05-22T13:29:34;99250.31;;;32.64;40.70
44103;BME280;29769;42.178;24.742;2023-05-22T13:32:19;99250.00;;;33.06;37.13
44103;BME280;29769;42.178;24.742;2023-05-22T13:35:03;99241.69;;;33.39;36.72
44103;BME280;29769;42.178;24.742;2023-05-22T13:37:49;99236.66;;;33.50;35.64
44103;BME280;29769;42.178;24.742;2023-05-22T13:40:33;99243.38;;;33.63;34.96
44103;BME280;29769;42.178;24.742;2023-05-22T13:43:18;99239.06;;;32.59;34.71
44103;BME280;29769;42.178;24.742;2023-05-22T13:46:02;99241.44;;;31.57;35.54
44103;BME280;29769;42.178;24.742;2023-05-22T13:48:48;99234.44;;;30.97;38.17
44103;BME280;29769;42.178;24.742;2023-05-22T13:51:32;99234.06;;;30.58;38.91
44103;BME280;29769;42.178;24.742;2023-05-22T13:54:17;99232.72;;;30.36;39.86
44103;BME280;29769;42.178;24.742;2023-05-22T13:57:01;99228.25;;;30.27;40.65
44103;BME280;29769;42.178;24.742;2023-05-22T13:59:46;99236.59;;;30.25;40.51
44103;BME280;29769;42.178;24.742;2023-05-22T14:02:30;99237.72;;;29.62;44.05
44103;BME280;29769;42.178;24.742;2023-05-22T14:05:15;99232.69;;;29.84;44.36
44103;BME280;29769;42.178;24.742;2023-05-22T14:08:00;99229.56;;;30.66;44.26
44103;BME280;29769;42.178;24.742;2023-05-22T14:10:44;99223.16;;;30.75;42.75
44103;BME280;29769;42.178;24.742;2023-05-22T14:13:29;99223.31;;;30.74;42.32
44103;BME280;29769;42.178;24.742;2023-05-22T14:16:13;99229.16;;;30.35;44.12
44103;BME280;29769;42.178;24.742;2023-05-22T14:18:59;99235.69;;;29.81;42.39
44103;BME280;29769;42.178;24.742;2023-05-22T14:21:44;99230.69;;;29.24;44.18
44103;BME280;29769;42.178;24.742;2023-05-22T14:24:29;99228.69;;;28.71;48.46
44103;BME280;29769;42.178;24.742;2023-05-22T14:27:13;99226.22;;;28.41;54.75
44103;BME280;29769;42.178;24.742;2023-05-22T14:29:58;99226.53;;;28.09;58.63
44103;BME280;29769;42.178;24.742;2023-05-22T14:32:42;99216.59;;;27.32;62.02
44103;BME280;29769;42.178;24.742;2023-05-22T14:35:27;99221.44;;;26.49;63.13
44103;BME280;29769;42.178;24.742;2023-05-22T14:38:12;99229.59;;;26.17;63.29
44103;BME280;29769;42.178;24.742;2023-05-22T14:40:56;99222.13;;;25.79;63.11